Time;durP1;ratioP1;P1;durP2;ratioP2;P2;SDS_P1;SDS_P2;PMS_P1;PMS_P2;Temp;Humidity;BMP_temperature;BMP_pressure;BME280_temperature;BME280_humidity;BME280_pressure;Samples;Min_cycle;Max_cycle;Signal;HPM_P1;HPM_P2
2022/08/22 02:48:39;;;;;;;3.28;0.50;;;14.90;99.90;;;;;;4888914;23;93958;-75
2022/08/22 02:51:38;;;;;;;3.08;0.50;;;14.90;99.90;;;;;;4822752;29;93413;-72
2022/08/22 02:54:42;;;;;;;1.98;0.50;;;14.90;99.90;;;;;;4822439;29;92625;-73
2022/08/22 02:57:44;;;;;;;4.45;0.57;;;14.90;99.90;;;;;;4817446;29;91716;-75
2022/08/22 03:00:26;;;;;;;1.80;0.65;;;14.90;99.90;;;;;;4821468;29;92259;-72
2022/08/22 03:02:57;;;;;;;1.30;0.50;;;14.80;99.90;;;;;;4823450;29;91940;-72
2022/08/22 03:05:47;;;;;;;2.55;0.43;;;14.80;99.90;;;;;;4823102;29;91749;-71
2022/08/22 03:08:21;;;;;;;;;;;14.90;99.90;;;;;;4823511;29;92133;-74
2022/08/22 03:11:02;;;;;;;2.20;0.43;;;14.90;99.90;;;;;;4824325;29;92219;-74
2022/08/22 03:13:48;;;;;;;1.60;0.50;;;14.80;99.90;;;;;;4821784;29;93000;-74
2022/08/22 03:16:36;;;;;;;6.85;0.43;;;14.80;99.90;;;;;;4805322;29;91318;-74
2022/08/22 03:19:07;;;;;;;4.57;0.60;;;14.80;99.90;;;;;;4805461;29;91456;-71
2022/08/22 03:21:44;;;;;;;1.05;0.32;;;14.80;99.90;;;;;;4804170;29;92957;-73
2022/08/22 03:24:51;;;;;;;2.33;0.50;;;14.80;99.90;;;;;;4810189;29;92969;-75
2022/08/22 03:27:38;;;;;;;3.20;0.55;;;14.70;99.90;;;;;;4818814;29;91824;-72
2022/08/22 03:30:07;;;;;;;1.92;0.40;;;14.90;99.90;;;;;;4826050;29;91956;-73
2022/08/22 03:32:58;;;;;;;4.80;0.50;;;14.90;99.90;;;;;;4826219;29;92400;-71
2022/08/22 03:35:45;;;;;;;1.27;0.40;;;14.80;99.90;;;;;;4825456;29;91282;-71
2022/08/22 03:38:26;;;;;;;1.80;0.47;;;14.70;99.90;;;;;;4827550;29;91402;-77
2022/08/22 03:41:25;;;;;;;2.85;0.40;;;14.70;99.90;;;;;;4828412;29;91349;-78
2022/08/22 03:43:59;;;;;;;2.17;0.50;;;14.70;99.90;;;;;;4836592;29;92900;-78
2022/08/22 03:46:55;;;;;;;2.95;0.60;;;14.60;99.90;;;;;;4827122;29;92195;-78
2022/08/22 03:49:42;;;;;;;2.33;0.50;;;14.50;99.90;;;;;;4827767;29;92298;-77
2022/08/22 03:53:06;;;;;;;2.75;0.63;;;14.50;99.90;;;;;;4828023;29;91412;-77
2022/08/22 03:56:09;;;;;;;4.47;0.55;;;14.60;99.90;;;;;;4809075;29;93561;-78
2022/08/22 03:58:54;;;;;;;2.15;0.60;;;14.50;99.90;;;;;;4807869;29;92269;-77
2022/08/22 04:01:56;;;;;;;3.00;0.43;;;14.50;99.90;;;;;;4808370;29;91296;-78
2022/08/22 04:04:51;;;;;;;3.75;0.43;;;14.50;99.90;;;;;;4804056;29;92139;-77
2022/08/22 04:07:47;;;;;;;1.95;0.60;;;14.50;99.90;;;;;;4800038;29;92195;-77
2022/08/22 04:10:50;;;;;;;5.25;0.60;;;14.50;99.90;;;;;;4808689;29;92356;-78
2022/08/22 04:13:28;;;;;;;2.92;0.50;;;14.50;99.90;;;;;;4805636;29;91327;-77
2022/08/22 04:16:13;;;;;;;2.30;0.60;;;14.60;99.90;;;;;;4807827;29;91268;-77
2022/08/22 04:18:51;;;;;;;2.60;0.30;;;14.50;99.90;;;;;;4807330;29;92735;-77
2022/08/22 04:21:26;;;;;;;1.85;0.50;;;14.50;99.90;;;;;;4808392;29;92207;-78
2022/08/22 04:23:54;;;;;;;4.13;0.50;;;14.50;99.90;;;;;;4807697;29;92367;-78
2022/08/22 04:26:55;;;;;;;2.08;0.52;;;14.50;99.90;;;;;;4808817;29;91677;-78
2022/08/22 04:29:44;;;;;;;2.92;0.70;;;14.50;99.90;;;;;;4807736;29;92082;-78
2022/08/22 04:32:43;;;;;;;1.58;0.60;;;14.50;99.90;;;;;;4807519;29;91814;-78
2022/08/22 04:35:26;;;;;;;2.70;0.60;;;14.50;99.90;;;;;;4797107;29;91784;-80
2022/08/22 04:38:21;;;;;;;2.70;0.40;;;14.40;99.90;;;;;;4805377;29;91072;-77
2022/08/22 04:40:54;;;;;;;2.40;0.60;;;14.40;99.90;;;;;;4800920;29;92227;-78
2022/08/22 04:43:35;;;;;;;2.13;0.60;;;14.50;99.90;;;;;;4807425;29;92833;-78
2022/08/22 04:46:35;;;;;;;3.10;0.52;;;14.50;99.90;;;;;;4808271;29;92644;-78
2022/08/22 04:49:06;;;;;;;3.05;0.63;;;14.40;99.90;;;;;;4799790;29;91357;-78
2022/08/22 04:51:41;;;;;;;2.95;0.73;;;14.50;99.90;;;;;;4807729;29;91974;-78
2022/08/22 04:54:12;;;;;;;4.35;0.57;;;14.90;99.90;;;;;;4806932;29;91388;-76
2022/08/22 04:56:59;;;;;;;5.18;0.85;;;15.30;99.90;;;;;;4808245;29;91905;-79
2022/08/22 04:59:25;;;;;;;2.42;0.80;;;16.10;99.90;;;;;;4795461;29;92176;-77
2022/08/22 05:01:55;;;;;;;3.97;0.70;;;16.60;99.90;;;;;;4807511;29;91862;-79
2022/08/22 05:04:47;;;;;;;3.22;0.75;;;17.20;99.90;;;;;;4803120;29;92013;-77
2022/08/22 05:07:25;;;;;;;5.50;1.17;;;17.60;99.90;;;;;;4807867;29;91408;-77
2022/08/22 05:09:55;;;;;;;5.05;0.60;;;17.80;99.90;;;;;;4808006;29;91265;-78
2022/08/22 05:12:29;;;;;;;5.47;0.63;;;18.30;99.90;;;;;;4812685;29;94832;-78
2022/08/22 05:15:00;;;;;;;1.92;0.65;;;18.50;96.90;;;;;;4804440;29;92929;-77
2022/08/22 05:17:29;;;;;;;4.70;0.65;;;18.80;96.10;;;;;;4808144;29;91323;-78
2022/08/22 05:19:59;;;;;;;5.50;0.50;;;19.50;93.10;;;;;;4808042;29;91557;-77
2022/08/22 05:22:35;;;;;;;2.45;0.50;;;19.90;91.40;;;;;;4807736;29;91956;-78
2022/08/22 05:25:13;;;;;;;3.83;0.70;;;20.30;89.00;;;;;;4803582;29;91969;-78
2022/08/22 05:27:44;;;;;;;2.75;0.60;;;19.90;91.20;;;;;;4807869;29;91495;-77
2022/08/22 05:30:20;;;;;;;1.88;0.32;;;20.10;88.00;;;;;;4807393;29;90664;-78
2022/08/22 05:32:48;;;;;;;;;;;20.60;84.20;;;;;;4807818;29;92431;-77
2022/08/22 05:35:17;;;;;;;1.90;0.60;;;20.50;87.70;;;;;;4808842;29;91771;-77
2022/08/22 05:37:50;;;;;;;2.97;0.73;;;20.60;85.00;;;;;;4795528;29;93057;-76
2022/08/22 05:40:26;;;;;;;3.08;0.55;;;20.50;83.60;;;;;;4807467;29;91334;-76
2022/08/22 05:42:53;;;;;;;;;;;20.70;82.00;;;;;;4807578;29;92569;-78
2022/08/22 05:45:20;;;;;;;2.80;0.60;;;20.80;81.30;;;;;;4808548;29;91361;-81
2022/08/22 05:48:01;;;;;;;2.80;0.93;;;21.40;81.90;;;;;;4806386;29;91251;-78
2022/08/22 05:50:46;;;;;;;1.50;0.50;;;21.50;78.70;;;;;;4807796;29;91942;-76
2022/08/22 05:53:26;;;;;;;3.47;0.50;;;21.40;77.50;;;;;;4806802;29;91934;-77
2022/08/22 05:55:57;;;;;;;4.32;0.70;;;21.20;79.00;;;;;;4807802;29;91949;-75
2022/08/22 05:58:38;;;;;;;1.48;0.60;;;21.90;76.80;;;;;;4807756;29;91323;-77
2022/08/22 06:01:22;;;;;;;5.75;0.82;;;21.30;77.20;;;;;;4795964;29;91555;-74
2022/08/22 06:03:57;;;;;;;2.92;1.00;;;21.50;76.70;;;;;;4806001;29;93400;-78
2022/08/22 06:06:25;;;;;;;2.13;0.85;;;21.00;78.60;;;;;;4807070;29;92125;-76
2022/08/22 06:09:08;;;;;;;2.97;0.68;;;21.30;78.70;;;;;;4807110;29;91443;-78
2022/08/22 06:11:42;;;;;;;2.78;0.70;;;21.30;78.80;;;;;;4807386;29;91369;-78
2022/08/22 06:14:31;;;;;;;3.72;0.52;;;21.80;76.30;;;;;;4806510;29;91632;-76
2022/08/22 06:17:03;;;;;;;5.97;0.63;;;21.20;78.80;;;;;;4808563;29;91837;-77
2022/08/22 06:19:31;;;;;;;2.83;0.50;;;22.40;76.30;;;;;;4807826;29;91329;-74
2022/08/22 06:21:57;;;;;;;3.08;0.68;;;23.70;74.20;;;;;;4807743;29;90625;-75
2022/08/22 06:24:26;;;;;;;3.80;0.90;;;25.30;64.90;;;;;;4801578;29;91523;-75
2022/08/22 06:26:55;;;;;;;2.80;0.93;;;24.80;66.20;;;;;;4807283;29;92130;-76
2022/08/22 06:29:38;;;;;;;5.07;0.50;;;25.30;63.80;;;;;;4806963;29;92309;-74
2022/08/22 06:32:14;;;;;;;1.58;0.60;;;26.10;62.90;;;;;;4806908;29;91517;-76
2022/08/22 06:34:44;;;;;;;2.40;0.63;;;27.40;59.00;;;;;;4806371;29;92042;-78
2022/08/22 06:37:21;;;;;;;3.55;0.47;;;28.00;56.30;;;;;;4794846;29;92278;-78
2022/08/22 06:39:50;;;;;;;2.85;0.70;;;28.20;55.60;;;;;;4806886;29;91490;-77
2022/08/22 06:42:17;;;;;;;4.93;0.73;;;28.90;53.50;;;;;;4808818;29;92064;-75
2022/08/22 06:44:59;;;;;;;1.30;0.63;;;29.80;52.50;;;;;;4805680;29;91637;-76
2022/08/22 06:48:05;;;;;;;2.10;0.88;;;30.50;49.80;;;;;;4806038;29;91334;-74
2022/08/22 06:50:37;;;;;;;3.10;0.98;;;31.20;49.70;;;;;;4775797;29;92248;-75
2022/08/22 06:53:22;;;;;;;5.13;1.05;;;30.80;48.70;;;;;;4802363;29;91643;-75
2022/08/22 06:55:54;;;;;;;1.58;1.00;;;31.20;50.00;;;;;;4805151;29;92843;-79
2022/08/22 06:58:27;;;;;;;3.13;0.82;;;32.70;48.90;;;;;;4804782;29;92964;-77
2022/08/22 07:00:57;;;;;;;5.97;1.10;;;34.20;46.10;;;;;;4805280;29;92025;-75
2022/08/22 07:03:44;;;;;;;3.63;1.20;;;34.60;45.50;;;;;;4806348;29;91872;-74
2022/08/22 07:06:26;;;;;;;1.95;1.27;;;34.50;43.70;;;;;;4808436;29;92262;-76
2022/08/22 07:08:53;;;;;;;2.47;1.05;;;35.20;43.40;;;;;;4807451;29;91791;-75
2022/08/22 07:11:28;;;;;;;1.70;1.05;;;35.90;42.90;;;;;;4808299;29;92156;-80
2022/08/22 07:14:01;;;;;;;2.25;1.45;;;37.00;41.40;;;;;;4808472;29;91032;-75
2022/08/22 07:16:31;;;;;;;3.70;1.17;;;38.30;39.00;;;;;;4808291;29;92217;-76
2022/08/22 07:18:57;;;;;;;2.50;1.48;;;38.90;38.80;;;;;;4812000;29;91969;-76
2022/08/22 07:21:41;;;;;;;3.40;1.55;;;39.40;38.30;;;;;;4807570;29;92772;-76
2022/08/22 07:24:08;;;;;;;3.08;2.33;;;39.30;37.70;;;;;;4808613;29;92035;-76
2022/08/22 07:26:58;;;;;;;2.42;1.45;;;39.60;37.60;;;;;;4807702;29;93319;-76
2022/08/22 07:29:46;;;;;;;2.58;1.30;;;39.90;38.30;;;;;;4795560;29;93506;-75
2022/08/22 07:32:18;;;;;;;3.05;1.40;;;39.50;35.50;;;;;;4807321;29;91386;-77
2022/08/22 07:35:06;;;;;;;3.15;2.20;;;37.70;39.70;;;;;;4808565;29;91857;-75
2022/08/22 07:37:48;;;;;;;3.13;1.83;;;37.00;38.10;;;;;;4796451;29;92387;-76
2022/08/22 07:40:45;;;;;;;9.50;1.83;;;37.30;38.80;;;;;;4809046;29;92412;-75
2022/08/22 07:43:34;;;;;;;2.45;1.33;;;36.40;39.00;;;;;;4808300;29;91307;-80
2022/08/22 07:46:11;;;;;;;3.88;1.45;;;37.50;39.10;;;;;;4807847;29;91957;-76
2022/08/22 07:48:49;;;;;;;3.90;1.58;;;39.60;37.50;;;;;;4808042;29;94206;-76
2022/08/22 07:51:21;;;;;;;2.50;2.17;;;40.40;36.80;;;;;;4801864;29;92963;-75
2022/08/22 07:54:15;;;;;;;3.67;1.77;;;41.40;35.30;;;;;;4807929;29;91285;-76
2022/08/22 07:56:54;;;;;;;3.38;1.92;;;41.60;33.90;;;;;;4805917;29;91389;-77
2022/08/22 07:59:32;;;;;;;4.50;2.80;;;41.10;35.20;;;;;;4806853;29;91987;-76
2022/08/22 08:02:00;;;;;;;5.72;1.98;;;40.80;35.00;;;;;;4807587;29;91475;-76
2022/08/22 08:04:32;;;;;;;2.55;1.55;;;42.10;35.10;;;;;;4795180;29;91722;-75
2022/08/22 08:07:01;;;;;;;3.17;2.08;;;41.40;35.50;;;;;;4808110;29;90937;-75
2022/08/22 08:09:33;;;;;;;3.75;2.70;;;43.00;33.60;;;;;;4806383;29;92379;-76
2022/08/22 08:12:02;;;;;;;5.78;2.40;;;42.20;34.10;;;;;;4807381;29;91437;-77
2022/08/22 08:14:28;;;;;;;6.38;2.30;;;44.00;32.60;;;;;;4807138;29;92780;-75
2022/08/22 08:17:04;;;;;;;6.13;3.50;;;43.70;32.80;;;;;;4807266;29;91385;-75
2022/08/22 08:19:34;;;;;;;3.35;2.83;;;42.20;33.00;;;;;;4793395;29;92078;-77
2022/08/22 08:22:00;;;;;;;5.40;2.28;;;40.60;35.30;;;;;;4806688;29;91891;-75
2022/08/22 08:24:32;;;;;;;4.57;3.83;;;40.70;34.80;;;;;;4808214;29;91470;-77
2022/08/22 08:29:58;;;;;;;4.97;2.63;;;43.80;32.80;;;;;;4806402;29;91437;-76
2022/08/22 08:32:27;;;;;;;3.38;2.60;;;42.20;33.10;;;;;;4807655;29;92970;-75
2022/08/22 08:34:53;;;;;;;3.38;2.45;;;41.40;33.60;;;;;;4806988;29;92014;-78
2022/08/22 08:37:44;;;;;;;5.43;3.53;;;42.80;33.00;;;;;;4807109;29;92227;-75
2022/08/22 08:40:34;;;;;;;4.50;2.15;;;43.20;33.90;;;;;;4810560;29;93231;-76
2022/08/22 08:43:28;;;;;;;4.57;3.30;;;45.60;31.30;;;;;;4806938;29;92105;-75
2022/08/22 08:46:31;;;;;;;5.35;2.88;;;45.80;30.40;;;;;;4807211;29;91297;-75
2022/08/22 08:49:28;;;;;;;4.75;3.90;;;46.50;30.60;;;;;;4778033;29;91307;-77
2022/08/22 08:52:10;;;;;;;5.72;3.65;;;47.60;30.50;;;;;;4787877;29;92518;-76
2022/08/22 08:55:06;;;;;;;4.03;3.72;;;48.10;30.30;;;;;;4788819;29;92700;-79
2022/08/22 08:57:50;;;;;;;5.07;4.63;;;49.60;30.30;;;;;;4781403;29;91335;-76
2022/08/22 09:00:22;;;;;;;4.95;4.45;;;48.50;30.50;;;;;;4778588;29;91388;-75
2022/08/22 09:03:18;;;;;;;7.22;5.35;;;47.30;30.70;;;;;;4785693;29;91965;-77
2022/08/22 09:05:56;;;;;;;5.40;4.90;;;47.10;30.90;;;;;;4782535;29;92092;-78
2022/08/22 09:08:47;;;;;;;4.78;4.38;;;47.40;31.70;;;;;;4787301;29;92289;-76
2022/08/22 09:11:32;;;;;;;4.20;3.80;;;48.30;29.90;;;;;;4787737;29;91359;-78
2022/08/22 09:14:11;;;;;;;4.97;4.45;;;48.50;31.50;;;;;;4787994;29;91766;-77
2022/08/22 09:16:47;;;;;;;7.57;6.65;;;47.60;31.70;;;;;;4786678;29;91876;-76
2022/08/22 09:19:25;;;;;;;5.68;5.03;;;48.10;31.50;;;;;;4786849;29;91936;-76
2022/08/22 09:22:06;;;;;;;7.32;6.63;;;48.90;30.80;;;;;;4785096;29;91828;-76
2022/08/22 09:24:52;;;;;;;8.18;6.28;;;48.10;30.60;;;;;;4777674;29;92303;-76
2022/08/22 09:27:39;;;;;;;6.35;5.80;;;47.20;31.40;;;;;;4786540;29;92099;-77
2022/08/22 09:30:13;;;;;;;4.95;4.53;;;47.40;30.70;;;;;;4787953;29;91301;-76
2022/08/22 09:33:05;;;;;;;7.00;6.28;;;47.40;31.10;;;;;;4787699;29;92470;-77
2022/08/22 09:35:37;;;;;;;5.28;4.88;;;47.50;30.90;;;;;;4787648;29;94625;-75
2022/08/22 09:38:36;;;;;;;9.30;8.40;;;47.10;31.70;;;;;;4788445;29;92055;-75
2022/08/22 09:41:37;;;;;;;5.28;4.88;;;48.20;30.00;;;;;;4788323;29;92128;-75
2022/08/22 09:44:36;;;;;;;5.88;5.35;;;47.90;29.50;;;;;;4769455;29;92010;-75
2022/08/22 09:47:54;;;;;;;5.72;5.22;;;48.40;30.20;;;;;;4781964;29;92325;-75
2022/08/22 09:50:29;;;;;;;5.63;5.18;;;47.60;30.10;;;;;;4803849;29;91958;-79
2022/08/22 09:53:10;;;;;;;7.32;6.72;;;47.90;30.70;;;;;;4805803;29;91290;-78
2022/08/22 09:55:51;;;;;;;4.40;3.95;;;49.10;29.80;;;;;;4807224;29;90631;-76
2022/08/22 09:58:26;;;;;;;8.23;6.32;;;49.80;29.80;;;;;;4804963;29;91551;-79
2022/08/22 10:00:54;;;;;;;5.65;5.15;;;49.90;29.20;;;;;;4804045;29;92051;-77
2022/08/22 10:03:29;;;;;;;5.10;4.47;;;48.40;29.60;;;;;;4798688;29;92363;-75
2022/08/22 10:06:10;;;;;;;5.13;4.68;;;48.60;29.30;;;;;;4801839;29;91562;-76
2022/08/22 10:08:38;;;;;;;4.72;4.30;;;47.10;30.10;;;;;;4804893;29;92674;-77
2022/08/22 10:11:18;;;;;;;5.00;4.15;;;47.00;29.90;;;;;;4803049;29;91334;-76
2022/08/22 10:13:54;;;;;;;6.25;4.03;;;47.40;29.80;;;;;;4805607;29;91286;-75
2022/08/22 10:16:55;;;;;;;5.60;5.20;;;48.50;29.30;;;;;;4794306;29;91372;-75
2022/08/22 10:19:34;;;;;;;4.95;4.47;;;45.80;29.80;;;;;;4804650;29;91762;-78
2022/08/22 10:22:14;;;;;;;3.63;3.33;;;44.00;31.30;;;;;;4801357;29;91905;-76
2022/08/22 10:24:55;;;;;;;4.57;4.18;;;41.80;32.20;;;;;;4805736;29;91785;-75
2022/08/22 10:27:46;;;;;;;3.78;2.92;;;39.10;35.90;;;;;;4804592;29;91837;-76
2022/08/22 10:30:22;;;;;;;3.80;2.97;;;36.80;36.60;;;;;;4804333;29;93239;-77
2022/08/22 10:33:08;;;;;;;3.65;2.30;;;34.70;39.60;;;;;;4805404;29;92878;-76
2022/08/22 10:35:38;;;;;;;2.97;1.70;;;33.20;41.60;;;;;;4807747;29;91352;-76
2022/08/22 10:38:25;;;;;;;2.20;1.63;;;32.50;43.90;;;;;;4810698;29;91377;-77
2022/08/22 10:41:00;;;;;;;3.15;2.28;;;31.50;44.80;;;;;;4795830;29;92585;-76
2022/08/22 10:43:35;;;;;;;;;;;30.80;45.60;;;;;;4805615;29;91842;-75
2022/08/22 10:46:22;;;;;;;4.40;1.40;;;30.30;48.50;;;;;;4807202;29;92143;-76
2022/08/22 10:48:58;;;;;;;2.50;1.48;;;29.60;49.90;;;;;;4804657;29;90932;-74
2022/08/22 10:51:38;;;;;;;2.05;1.10;;;29.20;52.80;;;;;;4805302;29;92263;-76
2022/08/22 10:54:12;;;;;;;5.68;1.45;;;28.80;52.40;;;;;;4804145;29;92018;-78
2022/08/22 10:57:02;;;;;;;2.30;1.40;;;28.50;51.90;;;;;;4805318;29;92205;-77
2022/08/22 10:59:57;;;;;;;2.88;1.23;;;28.50;53.00;;;;;;4798921;29;91677;-75
2022/08/22 11:02:31;;;;;;;3.95;1.23;;;28.70;51.40;;;;;;4805159;29;93261;-76
2022/08/22 11:05:21;;;;;;;2.53;1.00;;;28.60;52.40;;;;;;4793839;29;91371;-75
2022/08/22 11:08:10;;;;;;;3.03;1.23;;;28.30;53.50;;;;;;4804443;29;92214;-75
2022/08/22 11:11:07;;;;;;;2.42;1.10;;;28.20;53.90;;;;;;4801812;29;91489;-75
2022/08/22 11:14:01;;;;;;;3.42;1.38;;;27.80;54.10;;;;;;4805409;29;91688;-73
2022/08/22 11:16:36;;;;;;;4.65;0.93;;;27.50;55.30;;;;;;4805429;29;92407;-77
2022/08/22 11:19:10;;;;;;;2.85;1.25;;;27.70;54.30;;;;;;4804525;29;91245;-78
2022/08/22 11:21:58;;;;;;;3.25;1.15;;;27.90;55.40;;;;;;4805685;29;91858;-78
2022/08/22 11:24:30;;;;;;;1.95;0.82;;;27.80;54.20;;;;;;4800466;29;94132;-80
2022/08/22 11:27:12;;;;;;;1.63;0.98;;;27.90;55.20;;;;;;4805016;29;92174;-77
2022/08/22 11:29:47;;;;;;;4.63;1.02;;;27.90;53.40;;;;;;4802824;29;91533;-77
2022/08/22 11:32:26;;;;;;;5.82;1.23;;;28.10;55.90;;;;;;4805263;29;91770;-78
2022/08/22 11:34:59;;;;;;;5.47;1.58;;;28.10;54.70;;;;;;4811814;29;92718;-78
2022/08/22 11:37:58;;;;;;;2.50;0.88;;;28.30;54.30;;;;;;4804334;29;92168;-76
2022/08/22 11:40:52;;;;;;;3.65;1.13;;;27.60;53.70;;;;;;4805262;29;91878;-76
2022/08/22 11:43:33;;;;;;;2.70;1.13;;;27.30;56.30;;;;;;4805847;29;90550;-78
2022/08/22 11:46:41;;;;;;;2.72;1.23;;;27.30;56.00;;;;;;4804672;29;92154;-77
2022/08/22 11:49:32;;;;;;;2.50;1.02;;;27.20;57.80;;;;;;4802059;29;91945;-76
2022/08/22 11:52:24;;;;;;;1.52;0.75;;;27.30;57.30;;;;;;4796994;29;92252;-77
2022/08/22 11:55:20;;;;;;;4.75;1.02;;;27.50;57.80;;;;;;4786813;29;93035;-76
2022/08/22 11:57:55;;;;;;;2.17;0.88;;;27.20;56.40;;;;;;4806713;29;93225;-77
2022/08/22 12:00:31;;;;;;;3.83;0.90;;;27.40;57.40;;;;;;4799062;29;91627;-76
2022/08/22 12:03:18;;;;;;;4.75;1.20;;;27.40;55.60;;;;;;4804354;29;92629;-78
2022/08/22 12:05:53;;;;;;;2.72;1.02;;;27.40;56.90;;;;;;4802169;29;91330;-77
2022/08/22 12:08:36;;;;;;;5.68;1.08;;;27.50;56.50;;;;;;4807026;29;92247;-77
2022/08/22 12:11:32;;;;;;;3.65;1.10;;;27.50;55.50;;;;;;4807690;29;92386;-77
2022/08/22 12:14:04;;;;;;;3.47;1.73;;;27.30;56.60;;;;;;4779444;29;92011;-77
2022/08/22 12:16:42;;;;;;;3.05;1.20;;;26.90;55.20;;;;;;4807808;29;91987;-78
2022/08/22 12:19:27;;;;;;;3.60;1.70;;;26.80;57.60;;;;;;4804879;29;93643;-78
2022/08/22 12:22:05;;;;;;;2.70;1.10;;;26.80;57.10;;;;;;4807747;29;93210;-79
2022/08/22 12:24:52;;;;;;;7.38;1.45;;;26.80;57.30;;;;;;4812551;29;92027;-81
2022/08/22 12:27:25;;;;;;;3.03;1.30;;;27.20;55.80;;;;;;4808719;29;91530;-77
2022/08/22 12:30:03;;;;;;;2.35;0.93;;;27.40;54.20;;;;;;4807673;29;91605;-78
2022/08/22 12:32:54;;;;;;;4.60;1.33;;;27.00;54.00;;;;;;4795687;29;92478;-77
2022/08/22 12:35:20;;;;;;;4.82;1.45;;;27.10;55.90;;;;;;4804326;29;92447;-78
2022/08/22 12:38:06;;;;;;;5.13;1.75;;;27.20;55.50;;;;;;4807429;29;90763;-76
2022/08/22 12:40:37;;;;;;;6.35;1.55;;;27.60;54.60;;;;;;4807084;29;92454;-77
2022/08/22 12:43:35;;;;;;;4.90;1.52;;;27.40;53.40;;;;;;4807387;29;92039;-77
2022/08/22 12:46:27;;;;;;;3.15;1.02;;;27.20;54.80;;;;;;4803986;29;92433;-77
2022/08/22 12:49:17;;;;;;;2.08;0.90;;;27.20;54.80;;;;;;4806861;29;91368;-78
2022/08/22 12:52:10;;;;;;;3.28;1.30;;;27.10;55.80;;;;;;4807249;29;92445;-78
2022/08/22 12:54:54;;;;;;;9.10;1.42;;;27.00;56.50;;;;;;4808538;29;91869;-78
2022/08/22 12:57:43;;;;;;;3.90;1.35;;;27.50;53.60;;;;;;4806883;29;91330;-77
2022/08/22 13:00:33;;;;;;;3.17;1.52;;;27.50;54.00;;;;;;4805996;29;91242;-78
2022/08/22 13:03:06;;;;;;;5.45;1.42;;;27.70;52.80;;;;;;4806729;29;92216;-78
2022/08/22 13:05:34;;;;;;;2.30;0.90;;;27.50;54.10;;;;;;4807368;29;91210;-76
2022/08/22 13:08:08;;;;;;;4.05;1.58;;;27.50;53.20;;;;;;4806600;29;91824;-76
2022/08/22 13:10:47;;;;;;;3.05;0.93;;;27.30;54.10;;;;;;4806872;29;91267;-77
2022/08/22 13:13:36;;;;;;;3.50;1.33;;;27.20;54.30;;;;;;4795913;29;93719;-78
2022/08/22 13:16:08;;;;;;;5.35;1.10;;;27.10;53.80;;;;;;4806738;29;92326;-76
2022/08/22 13:18:40;;;;;;;2.10;1.10;;;27.00;52.60;;;;;;4806338;29;91525;-77
2022/08/22 13:21:10;;;;;;;4.00;0.93;;;27.00;53.30;;;;;;4806775;29;91274;-77
2022/08/22 13:23:45;;;;;;;3.47;1.35;;;27.20;53.40;;;;;;4806447;29;92314;-77
2022/08/22 13:26:20;;;;;;;2.90;1.08;;;27.20;53.20;;;;;;4804917;29;92109;-78
2022/08/22 13:29:06;;;;;;;1.73;0.90;;;27.00;52.30;;;;;;4805499;29;91371;-80
2022/08/22 13:31:39;;;;;;;2.75;1.75;;;27.10;53.10;;;;;;4809925;29;90780;-77
2022/08/22 13:34:27;;;;;;;2.00;0.98;;;27.10;53.40;;;;;;4806365;29;92350;-78
2022/08/22 13:36:57;;;;;;;2.20;1.00;;;27.40;52.60;;;;;;4806519;29;91272;-76
2022/08/22 13:39:32;;;;;;;4.32;1.00;;;27.00;52.70;;;;;;4806116;29;93036;-76
2022/08/22 13:41:59;;;;;;;;;;;27.00;52.70;;;;;;4807151;29;91793;-77
2022/08/22 13:44:28;;;;;;;2.50;1.10;;;27.10;53.10;;;;;;4807409;29;92062;-77
2022/08/22 13:47:03;;;;;;;6.50;1.15;;;27.20;52.70;;;;;;4805735;29;92084;-77
2022/08/22 13:49:34;;;;;;;2.28;1.02;;;27.30;52.90;;;;;;4800399;29;91890;-79
2022/08/22 13:52:06;;;;;;;3.20;1.00;;;27.30;52.90;;;;;;4806465;29;91743;-77
2022/08/22 13:54:48;;;;;;;2.13;0.88;;;27.30;54.10;;;;;;4806253;29;93552;-78
2022/08/22 13:57:31;;;;;;;3.60;1.02;;;27.00;53.40;;;;;;4804016;29;91965;-76
2022/08/22 14:00:12;;;;;;;3.67;1.45;;;26.80;53.80;;;;;;4806466;29;91948;-78
2022/08/22 14:03:09;;;;;;;2.80;1.33;;;27.10;53.30;;;;;;4805251;29;91401;-77
2022/08/22 14:05:37;;;;;;;4.28;1.58;;;27.00;51.30;;;;;;4799048;29;93367;-77
2022/08/22 14:08:16;;;;;;;4.00;1.42;;;27.00;53.90;;;;;;4805053;29;92807;-78
2022/08/22 14:10:49;;;;;;;1.90;0.77;;;27.00;52.80;;;;;;4806516;29;91341;-76
2022/08/22 14:13:28;;;;;;;3.28;1.10;;;26.90;51.60;;;;;;4806088;29;92197;-79
2022/08/22 14:16:00;;;;;;;3.75;1.30;;;26.90;52.10;;;;;;4806083;29;93381;-78
2022/08/22 14:18:30;;;;;;;4.05;1.45;;;27.00;53.00;;;;;;4805786;29;91887;-76
2022/08/22 14:21:22;;;;;;;2.60;1.10;;;27.10;52.30;;;;;;4806351;29;91819;-79
2022/08/22 14:23:54;;;;;;;2.55;0.98;;;27.10;52.20;;;;;;4806945;29;91313;-78
2022/08/22 14:26:30;;;;;;;5.43;1.17;;;27.20;51.30;;;;;;4804566;29;91766;-77
2022/08/22 14:29:00;;;;;;;2.70;1.10;;;27.20;51.20;;;;;;4805474;29;92308;-76
2022/08/22 14:31:27;;;;;;;5.18;1.50;;;27.20;53.10;;;;;;4809010;29;92533;-77
2022/08/22 14:34:02;;;;;;;3.80;1.38;;;27.20;52.20;;;;;;4806026;29;91318;-77
2022/08/22 14:36:41;;;;;;;2.25;1.58;;;27.10;52.10;;;;;;4805990;29;92352;-76
2022/08/22 14:39:15;;;;;;;2.92;1.40;;;26.80;51.70;;;;;;4797982;29;92011;-77
2022/08/22 14:42:10;;;;;;;5.53;1.05;;;26.80;54.20;;;;;;4806134;29;92235;-76
2022/08/22 14:44:43;;;;;;;2.95;1.45;;;27.00;52.90;;;;;;4806005;29;91443;-79
2022/08/22 14:47:27;;;;;;;2.75;0.93;;;27.00;53.60;;;;;;4792460;29;91624;-77
2022/08/22 14:50:08;;;;;;;5.28;1.33;;;27.10;52.70;;;;;;4806201;29;91029;-77
2022/08/22 14:52:41;;;;;;;4.20;1.20;;;26.80;53.20;;;;;;4806121;29;91299;-76
2022/08/22 14:55:17;;;;;;;2.22;1.20;;;26.80;53.10;;;;;;4805723;29;92024;-80
2022/08/22 14:57:58;;;;;;;2.97;1.42;;;26.80;53.30;;;;;;4802033;29;96770;-76
2022/08/22 15:00:29;;;;;;;3.65;0.85;;;26.80;55.70;;;;;;4799527;29;92936;-76
2022/08/22 15:03:20;;;;;;;2.72;1.30;;;26.70;54.20;;;;;;4805420;29;91824;-77
2022/08/22 15:05:58;;;;;;;4.03;0.90;;;26.70;54.50;;;;;;4806252;29;91459;-76
2022/08/22 15:08:47;;;;;;;2.35;1.08;;;26.70;54.50;;;;;;4804863;29;92324;-76
2022/08/22 15:11:22;;;;;;;3.90;1.15;;;26.40;54.20;;;;;;4800173;29;92201;-76
2022/08/22 15:13:59;;;;;;;2.53;1.20;;;26.40;53.50;;;;;;4806185;29;92021;-79
2022/08/22 15:16:36;;;;;;;4.18;1.23;;;26.60;53.00;;;;;;4795393;29;91156;-76
2022/08/22 15:19:37;;;;;;;3.30;1.25;;;26.70;52.60;;;;;;4805387;29;92524;-76
2022/08/22 15:22:24;;;;;;;2.67;1.25;;;26.60;52.90;;;;;;4805730;29;91736;-76
2022/08/22 15:24:56;;;;;;;2.95;1.25;;;26.60;53.80;;;;;;4801952;29;92396;-76
2022/08/22 15:27:24;;;;;;;3.78;1.30;;;26.50;54.50;;;;;;4803452;29;91747;-78
2022/08/22 15:29:57;;;;;;;2.95;1.20;;;26.50;52.70;;;;;;4806202;29;91692;-77
2022/08/22 15:32:26;;;;;;;2.60;1.10;;;26.50;54.30;;;;;;4802387;29;93017;-78
2022/08/22 15:35:01;;;;;;;3.92;1.17;;;26.50;53.70;;;;;;4809852;29;92013;-77
2022/08/22 15:37:30;;;;;;;2.80;1.38;;;26.40;52.40;;;;;;4807920;29;91416;-74
2022/08/22 15:40:12;;;;;;;3.30;1.52;;;26.40;54.10;;;;;;4807778;29;93172;-77
2022/08/22 15:42:47;;;;;;;2.75;1.25;;;26.40;52.70;;;;;;4808590;29;92443;-76
2022/08/22 15:45:37;;;;;;;3.25;1.08;;;26.50;50.40;;;;;;4806669;29;92011;-77
2022/08/22 15:48:22;;;;;;;2.33;1.20;;;26.50;50.30;;;;;;4806236;29;91365;-79
2022/08/22 15:50:57;;;;;;;2.30;0.93;;;26.50;51.20;;;;;;4800219;29;93216;-76
2022/08/22 15:53:52;;;;;;;2.72;1.33;;;26.50;51.60;;;;;;4806229;29;92158;-76
2022/08/22 15:56:23;;;;;;;4.18;1.30;;;26.40;49.70;;;;;;4806609;29;92426;-77
2022/08/22 15:59:13;;;;;;;2.95;1.48;;;26.30;49.30;;;;;;4805903;29;91398;-77
2022/08/22 16:01:52;;;;;;;4.25;1.35;;;26.30;49.60;;;;;;4807079;29;92197;-75
2022/08/22 16:04:43;;;;;;;2.80;1.38;;;26.30;50.60;;;;;;4794331;29;91951;-75
2022/08/22 16:07:43;;;;;;;2.83;1.20;;;26.30;51.10;;;;;;4808276;29;91525;-76
2022/08/22 16:10:11;;;;;;;2.90;1.63;;;26.20;50.90;;;;;;4806958;29;90683;-77
2022/08/22 16:12:44;;;;;;;2.83;1.10;;;26.20;49.70;;;;;;4806165;29;91769;-76
2022/08/22 16:16:02;;;;;;;5.65;1.35;;;26.20;50.30;;;;;;4806521;29;92185;-77
2022/08/22 16:18:38;;;;;;;3.15;1.75;;;26.10;52.40;;;;;;4774435;29;93033;-76
2022/08/22 16:21:07;;;;;;;2.47;1.33;;;26.00;51.80;;;;;;4804981;29;92022;-76
2022/08/22 16:23:50;;;;;;;2.67;1.20;;;25.90;51.70;;;;;;4801518;29;93747;-77
2022/08/22 16:26:30;;;;;;;2.85;1.45;;;25.80;50.60;;;;;;4807550;29;92069;-76
2022/08/22 16:29:33;;;;;;;4.00;1.23;;;26.00;50.30;;;;;;4815789;29;92243;-77
2022/08/22 16:32:03;;;;;;;3.28;1.55;;;25.90;50.30;;;;;;4804572;29;91312;-76
2022/08/22 16:34:32;;;;;;;3.25;1.23;;;25.80;51.60;;;;;;4809923;29;92319;-76
2022/08/22 16:37:13;;;;;;;3.58;1.38;;;25.70;51.50;;;;;;4805412;29;91984;-77
2022/08/22 16:40:07;;;;;;;2.95;1.10;;;25.70;52.00;;;;;;4805000;29;91402;-78
2022/08/22 16:42:45;;;;;;;2.55;1.25;;;25.70;52.70;;;;;;4806713;29;92076;-79
2022/08/22 16:45:33;;;;;;;2.50;1.10;;;25.70;52.10;;;;;;4808002;29;93532;-77
2022/08/22 16:48:33;;;;;;;3.15;1.30;;;25.60;52.60;;;;;;4805605;29;93281;-78